createdAt,value
2023-05-11T00:01:47.738Z,67.10
2023-05-11T00:04:14.604Z,67.10
2023-05-11T00:06:42.937Z,67.10
2023-05-11T00:09:09.904Z,67.10
2023-05-11T00:11:36.827Z,67.20
2023-05-11T00:14:03.701Z,67.20
2023-05-11T00:16:30.749Z,67.20
2023-05-11T00:18:57.889Z,67.20
2023-05-11T00:21:24.791Z,67.20
2023-05-11T00:23:53.071Z,67.20
2023-05-11T00:26:19.949Z,67.20
2023-05-11T00:28:46.816Z,67.20
2023-05-11T00:31:13.695Z,67.10
2023-05-11T00:33:40.546Z,67.20
2023-05-11T00:36:07.973Z,67.20
2023-05-11T00:38:34.981Z,67.10
2023-05-11T00:41:03.258Z,67.20
2023-05-11T00:43:30.242Z,67.20
2023-05-11T00:45:57.149Z,67.20
2023-05-11T00:48:23.993Z,67.20
2023-05-11T00:50:50.863Z,67.20
2023-05-11T00:53:17.774Z,67.30
2023-05-11T00:55:44.801Z,67.20
2023-05-11T00:58:13.010Z,67.20
2023-05-11T01:00:40.142Z,67.30
2023-05-11T01:03:07.137Z,67.20
2023-05-11T01:05:41.000Z,67.30
2023-05-11T01:08:11.301Z,67.20
2023-05-11T01:10:40.526Z,67.40
2023-05-11T01:13:12.581Z,67.60
2023-05-11T01:15:43.069Z,67.50
2023-05-11T01:18:14.425Z,67.40
2023-05-11T01:20:41.474Z,67.40
2023-05-11T01:23:32.281Z,67.40
2023-05-11T01:26:10.947Z,67.30
2023-05-11T01:29:10.612Z,67.30
2023-05-11T01:31:40.468Z,67.20
2023-05-11T01:34:09.999Z,67.50
2023-05-11T01:36:42.884Z,67.50
2023-05-11T01:39:10.811Z,67.40
2023-05-11T01:41:38.545Z,67.40
2023-05-11T01:44:07.568Z,67.40
2023-05-11T01:46:34.584Z,67.40
2023-05-11T01:49:05.711Z,67.40
2023-05-11T01:51:33.797Z,67.40
2023-05-11T01:54:00.728Z,67.40
2023-05-11T01:56:27.675Z,67.40
2023-05-11T01:58:54.693Z,67.40
2023-05-11T02:01:21.809Z,67.40
2023-05-11T02:03:48.843Z,67.40
2023-05-11T02:06:17.155Z,67.40
2023-05-11T02:08:44.185Z,67.30
2023-05-11T02:11:11.075Z,67.40
2023-05-11T02:13:38.406Z,67.30
2023-05-11T02:16:06.278Z,67.30
2023-05-11T02:18:33.229Z,68.10
2023-05-11T02:21:00.141Z,67.30
2023-05-11T02:23:28.461Z,67.30
2023-05-11T02:25:55.385Z,67.30
2023-05-11T02:28:22.276Z,67.20
2023-05-11T02:30:50.795Z,67.30
2023-05-11T02:33:20.164Z,67.20
2023-05-11T02:35:47.182Z,67.30
2023-05-11T02:38:14.109Z,67.30
2023-05-11T02:40:44.879Z,67.30
2023-05-11T02:43:12.975Z,67.20
2023-05-11T02:45:41.259Z,67.30
2023-05-11T02:48:10.353Z,67.20
2023-05-11T02:50:37.986Z,67.20
2023-05-11T02:53:07.778Z,67.20
2023-05-11T02:55:34.660Z,68.00
2023-05-11T02:58:02.978Z,67.10
2023-05-11T03:00:30.089Z,67.10
2023-05-11T03:02:57.083Z,67.10
2023-05-11T03:05:24.052Z,67.20
2023-05-11T03:07:51.370Z,67.10
2023-05-11T03:10:18.514Z,67.10
2023-05-11T03:12:45.561Z,67.20
2023-05-11T03:15:13.799Z,67.30
2023-05-11T03:17:40.697Z,67.30
2023-05-11T03:20:08.514Z,67.30
2023-05-11T03:22:35.478Z,67.30
2023-05-11T03:25:02.862Z,67.40
2023-05-11T03:27:29.960Z,67.40
2023-05-11T03:29:56.963Z,67.40
2023-05-11T03:32:25.499Z,67.50
2023-05-11T03:34:52.585Z,67.40
2023-05-11T03:37:19.720Z,67.40
2023-05-11T03:39:48.157Z,67.40
2023-05-11T03:42:14.993Z,67.40
2023-05-11T03:44:42.278Z,67.50
2023-05-11T03:47:09.168Z,67.60
2023-05-11T03:49:38.128Z,67.50
2023-05-11T03:52:05.579Z,67.50
2023-05-11T03:54:32.520Z,67.50
2023-05-11T03:56:59.389Z,67.50
2023-05-11T03:59:26.322Z,67.50
2023-05-11T04:01:53.254Z,67.50
2023-05-11T04:04:20.249Z,67.60
2023-05-11T04:06:48.593Z,67.60
2023-05-11T04:09:15.475Z,67.60
2023-05-11T04:11:42.334Z,67.60
2023-05-11T04:14:09.211Z,67.60
2023-05-11T04:16:36.152Z,67.60
2023-05-11T04:19:03.074Z,67.60
2023-05-11T04:21:29.991Z,67.70
2023-05-11T04:23:58.349Z,67.70
2023-05-11T04:26:25.285Z,67.70
2023-05-11T04:28:52.202Z,67.70
2023-05-11T04:31:19.090Z,67.70
2023-05-11T04:33:46.406Z,67.60
2023-05-11T04:36:13.248Z,67.60
2023-05-11T04:38:40.085Z,67.70
2023-05-11T04:41:08.456Z,67.60
2023-05-11T04:43:35.497Z,67.50
2023-05-11T04:46:02.366Z,67.60
2023-05-11T04:48:29.246Z,67.60
2023-05-11T04:50:56.206Z,67.60
2023-05-11T04:53:23.040Z,67.60
2023-05-11T04:55:50.085Z,67.60
2023-05-11T04:58:18.310Z,67.60
2023-05-11T05:00:45.162Z,67.60
2023-05-11T05:03:12.115Z,67.60
2023-05-11T05:05:38.978Z,67.60
2023-05-11T05:08:05.987Z,67.60
2023-05-11T05:10:32.835Z,67.70
2023-05-11T05:12:59.714Z,67.70
2023-05-11T05:15:28.010Z,67.60
2023-05-11T05:17:54.917Z,67.70
2023-05-11T05:20:21.827Z,67.70
2023-05-11T05:22:48.690Z,67.70
2023-05-11T05:25:15.529Z,67.70
2023-05-11T05:27:42.393Z,67.80
2023-05-11T05:30:09.648Z,67.80
2023-05-11T05:32:38.127Z,67.70
2023-05-11T05:35:05.983Z,67.70
2023-05-11T05:37:32.866Z,67.80
2023-05-11T05:39:59.710Z,67.80
2023-05-11T05:42:26.619Z,67.80
2023-05-11T05:44:53.507Z,67.80
2023-05-11T05:47:20.451Z,68.60
2023-05-11T05:49:48.738Z,67.80
2023-05-11T05:52:15.828Z,67.70
2023-05-11T05:54:42.701Z,67.80
2023-05-11T05:57:09.547Z,67.80
2023-05-11T05:59:36.409Z,67.80
2023-05-11T06:02:03.303Z,67.80
2023-05-11T06:04:30.191Z,67.80
2023-05-11T06:06:58.466Z,67.90
2023-05-11T06:09:25.375Z,67.90
2023-05-11T06:11:52.242Z,67.90
2023-05-11T06:14:19.093Z,68.80
2023-05-11T06:16:45.969Z,67.90
2023-05-11T06:19:12.877Z,68.00
2023-05-11T06:21:39.940Z,68.00
2023-05-11T06:24:08.449Z,68.10
2023-05-11T06:26:35.351Z,68.00
2023-05-11T06:29:02.218Z,68.10
2023-05-11T06:31:29.181Z,68.10
2023-05-11T06:33:56.131Z,68.10
2023-05-11T06:36:23.007Z,68.10
2023-05-11T06:38:49.860Z,68.10
2023-05-11T06:41:18.146Z,68.10
2023-05-11T06:43:45.019Z,68.20
2023-05-11T06:46:11.983Z,68.20
2023-05-11T06:48:38.945Z,68.20
2023-05-11T06:51:05.868Z,68.30
2023-05-11T06:53:32.952Z,68.30
2023-05-11T06:55:59.868Z,68.30
2023-05-11T06:58:28.092Z,68.30
2023-05-11T07:00:55.041Z,68.30
2023-05-11T07:03:21.924Z,68.30
2023-05-11T07:05:48.817Z,68.30
2023-05-11T07:08:15.700Z,68.30
2023-05-11T07:10:42.566Z,68.40
2023-05-11T07:13:09.434Z,68.40
2023-05-11T07:15:37.686Z,68.40
2023-05-11T07:18:04.857Z,68.40
2023-05-11T07:20:31.775Z,68.40
2023-05-11T07:22:58.693Z,68.40
2023-05-11T07:25:25.617Z,68.40
2023-05-11T07:27:52.474Z,69.20
2023-05-11T07:30:19.579Z,68.40
2023-05-11T07:32:48.166Z,68.40
2023-05-11T07:35:15.098Z,68.40
2023-05-11T07:37:41.981Z,68.40
2023-05-11T07:40:09.473Z,68.40
2023-05-11T07:42:36.348Z,68.50
2023-05-11T07:45:03.410Z,68.50
2023-05-11T07:47:30.312Z,68.50
2023-05-11T07:49:58.584Z,68.40
2023-05-11T07:52:25.432Z,68.40
2023-05-11T07:54:52.380Z,68.40
2023-05-11T07:57:19.569Z,68.50
2023-05-11T07:59:46.459Z,68.40
2023-05-11T08:02:13.783Z,68.40
2023-05-11T08:04:40.696Z,69.20
2023-05-11T08:07:09.127Z,68.40
2023-05-11T08:09:36.100Z,68.40
2023-05-11T08:12:03.076Z,68.40
2023-05-11T08:14:29.940Z,68.40
2023-05-11T08:16:56.774Z,68.40
2023-05-11T08:19:23.642Z,68.50
2023-05-11T08:21:50.509Z,68.50
2023-05-11T08:24:18.758Z,68.50
2023-05-11T08:26:45.620Z,68.50
2023-05-11T08:29:12.505Z,68.40
2023-05-11T08:31:39.580Z,68.40
2023-05-11T08:34:15.785Z,68.50
2023-05-11T08:36:46.359Z,68.40
2023-05-11T08:39:13.200Z,68.30
2023-05-11T08:41:41.450Z,68.20
2023-05-11T08:44:08.359Z,68.10
2023-05-11T08:46:35.878Z,68.10
2023-05-11T08:49:03.006Z,68.10
2023-05-11T08:51:29.965Z,68.10
2023-05-11T08:53:56.955Z,68.10
2023-05-11T08:56:23.875Z,68.00
2023-05-11T08:58:53.082Z,68.00
2023-05-11T09:01:21.206Z,68.00
2023-05-11T09:03:48.200Z,68.00
2023-05-11T09:06:15.098Z,68.00
2023-05-11T09:08:42.043Z,68.00
2023-05-11T09:11:08.921Z,68.00
2023-05-11T09:13:35.792Z,68.00
2023-05-11T09:16:04.316Z,68.00
2023-05-11T09:18:31.278Z,68.00
2023-05-11T09:20:58.308Z,68.10
2023-05-11T09:23:25.770Z,68.00
2023-05-11T09:25:52.657Z,68.10
2023-05-11T09:28:25.525Z,68.10
2023-05-11T09:30:52.823Z,68.20
2023-05-11T09:33:24.621Z,68.20
2023-05-11T09:35:51.600Z,68.20
2023-05-11T09:38:18.462Z,68.30
2023-05-11T09:40:50.892Z,68.30
2023-05-11T09:43:18.616Z,68.30
2023-05-11T09:45:46.153Z,68.40
2023-05-11T09:48:26.710Z,68.40
2023-05-11T09:50:59.524Z,68.20
2023-05-11T09:53:34.618Z,68.40
2023-05-11T09:56:01.483Z,68.30
2023-05-11T09:58:48.715Z,68.40
2023-05-11T10:01:16.236Z,68.40
2023-05-11T10:03:48.533Z,68.50
2023-05-11T10:06:17.530Z,68.40
2023-05-11T10:08:46.370Z,68.40
2023-05-11T10:11:13.242Z,68.30
2023-05-11T10:13:40.081Z,68.20
2023-05-11T10:16:07.797Z,68.30
2023-05-11T10:18:35.589Z,68.30
2023-05-11T10:21:04.008Z,68.30
2023-05-11T10:23:31.097Z,68.30
2023-05-11T10:25:58.007Z,68.30
2023-05-11T10:28:24.880Z,68.30
2023-05-11T10:30:51.739Z,68.30
2023-05-11T10:33:18.598Z,68.30
2023-05-11T10:35:45.708Z,68.30
2023-05-11T10:38:14.063Z,68.20
2023-05-11T10:40:41.977Z,68.30
2023-05-11T10:43:22.876Z,68.30
2023-05-11T10:45:52.189Z,68.30
2023-05-11T10:48:54.062Z,68.40
2023-05-11T10:51:44.090Z,68.40
2023-05-11T10:54:22.081Z,68.70
2023-05-11T10:57:08.591Z,68.70
2023-05-11T10:59:55.321Z,68.60
2023-05-11T11:02:22.301Z,68.70
2023-05-11T11:04:49.829Z,68.60
2023-05-11T11:07:17.007Z,68.50
2023-05-11T11:09:54.851Z,68.50
2023-05-11T11:12:21.824Z,68.40
2023-05-11T11:14:58.442Z,68.50
2023-05-11T11:17:26.524Z,68.50
2023-05-11T11:19:53.462Z,68.50
2023-05-11T11:22:45.394Z,68.50
2023-05-11T11:25:14.200Z,68.30
2023-05-11T11:27:57.321Z,68.60
2023-05-11T11:30:24.602Z,68.50
2023-05-11T11:32:52.013Z,68.60
2023-05-11T11:35:46.684Z,68.60
2023-05-11T11:38:14.126Z,68.40
2023-05-11T11:43:13.267Z,69.20
2023-05-11T11:45:40.657Z,68.50
2023-05-11T11:48:11.808Z,68.50
2023-05-11T11:50:39.834Z,68.50
2023-05-11T11:53:09.559Z,68.50
2023-05-11T11:55:48.213Z,68.50
2023-05-11T11:58:48.334Z,68.30
2023-05-11T12:01:15.818Z,68.30
2023-05-11T12:03:44.652Z,68.50
2023-05-11T12:06:11.795Z,68.50
2023-05-11T12:08:39.116Z,68.50
2023-05-11T12:11:07.539Z,68.50
2023-05-11T12:13:34.549Z,68.50
2023-05-11T12:16:10.764Z,68.50
2023-05-11T12:18:37.995Z,68.40
2023-05-11T12:21:04.923Z,68.50
2023-05-11T12:23:31.829Z,68.50
2023-05-11T12:26:01.866Z,68.60
2023-05-11T12:28:30.257Z,68.80
2023-05-11T12:30:59.123Z,68.80
2023-05-11T12:33:27.418Z,68.90
2023-05-11T12:35:54.406Z,68.80
2023-05-11T12:38:21.347Z,68.80
2023-05-11T12:40:48.378Z,68.70
2023-05-11T12:43:17.249Z,68.70
2023-05-11T12:45:45.649Z,68.70
2023-05-11T12:48:12.641Z,68.60
2023-05-11T12:50:42.556Z,68.70
2023-05-11T12:53:12.828Z,68.70
2023-05-11T12:55:39.681Z,68.70
2023-05-11T12:58:11.246Z,68.70
2023-05-11T13:00:38.119Z,68.70
2023-05-11T13:03:06.640Z,68.70
2023-05-11T13:05:33.683Z,68.70
2023-05-11T13:08:01.330Z,68.70
2023-05-11T13:10:28.323Z,68.60
2023-05-11T13:12:55.248Z,68.60
2023-05-11T13:15:23.370Z,68.60
2023-05-11T13:17:56.439Z,68.70
2023-05-11T13:20:25.447Z,68.60
2023-05-11T13:22:52.355Z,68.80
2023-05-11T13:25:20.252Z,68.80
2023-05-11T13:27:47.395Z,68.80
2023-05-11T13:30:14.548Z,69.00
2023-05-11T13:32:41.440Z,69.00
2023-05-11T13:35:09.061Z,69.10
2023-05-11T13:37:37.290Z,69.00
2023-05-11T13:40:05.143Z,69.00
2023-05-11T13:42:32.224Z,68.90
2023-05-11T13:44:59.088Z,68.90
2023-05-11T13:47:26.044Z,68.90
2023-05-11T13:49:52.956Z,68.90
2023-05-11T13:52:20.003Z,68.90
2023-05-11T13:54:48.316Z,68.90
2023-05-11T13:57:15.255Z,68.90
2023-05-11T13:59:42.211Z,68.90
2023-05-11T14:02:09.193Z,69.00
2023-05-11T14:04:36.204Z,69.00
2023-05-11T14:07:03.122Z,69.00
2023-05-11T14:09:29.992Z,69.00
2023-05-11T14:11:58.270Z,69.10
2023-05-11T14:14:26.650Z,69.20
2023-05-11T14:16:53.527Z,69.10
2023-05-11T14:19:20.459Z,69.10
2023-05-11T14:21:47.350Z,69.10
2023-05-11T14:24:14.302Z,69.20
2023-05-11T14:26:41.216Z,69.20
2023-05-11T14:29:09.561Z,69.20
2023-05-11T14:31:37.333Z,69.40
2023-05-11T14:34:04.435Z,69.30
2023-05-11T14:36:31.282Z,69.30
2023-05-11T14:38:58.163Z,69.40
2023-05-11T14:41:25.101Z,69.30
2023-05-11T14:43:51.954Z,69.30
2023-05-11T14:46:20.271Z,69.40
2023-05-11T14:48:47.225Z,69.40
2023-05-11T14:51:14.213Z,69.40
2023-05-11T14:53:41.143Z,69.30
2023-05-11T14:56:08.096Z,69.20
2023-05-11T14:58:35.077Z,69.20
2023-05-11T15:01:01.957Z,69.20
2023-05-11T15:03:30.303Z,69.20
2023-05-11T15:05:57.306Z,69.30
2023-05-11T15:08:30.017Z,69.30
2023-05-11T15:10:57.411Z,69.30
2023-05-11T15:13:24.389Z,69.30
2023-05-11T15:15:51.614Z,69.30
2023-05-11T15:18:18.934Z,69.30
2023-05-11T15:20:47.320Z,69.40
2023-05-11T15:23:14.233Z,69.30
2023-05-11T15:25:41.121Z,69.30
2023-05-11T15:28:08.003Z,69.30
2023-05-11T15:30:35.021Z,69.30
2023-05-11T15:33:01.997Z,69.20
2023-05-11T15:35:28.951Z,69.30
2023-05-11T15:37:57.238Z,69.20
2023-05-11T15:40:24.278Z,69.20
2023-05-11T15:42:51.139Z,69.20
2023-05-11T15:45:18.323Z,69.30
2023-05-11T15:47:45.448Z,69.30
2023-05-11T15:50:12.568Z,69.30
2023-05-11T15:52:39.549Z,69.30
2023-05-11T15:55:08.119Z,69.30
2023-05-11T15:57:35.682Z,69.30
2023-05-11T16:00:02.581Z,69.30
2023-05-11T16:02:29.494Z,69.30
2023-05-11T16:04:56.543Z,69.30
2023-05-11T16:07:23.465Z,69.30
2023-05-11T16:09:50.690Z,69.30
2023-05-11T16:12:19.076Z,69.40
2023-05-11T16:14:46.256Z,69.40
2023-05-11T16:17:13.314Z,69.40
2023-05-11T16:19:40.371Z,69.40
2023-05-11T16:22:07.221Z,69.40
2023-05-11T16:24:34.571Z,69.20
2023-05-11T16:27:01.724Z,69.20
2023-05-11T16:29:29.982Z,69.20
2023-05-11T16:31:57.030Z,69.00
2023-05-11T16:34:23.972Z,68.90
2023-05-11T16:36:50.838Z,68.90
2023-05-11T16:39:17.714Z,68.90
2023-05-11T16:41:44.572Z,68.80
2023-05-11T16:44:11.422Z,69.00
2023-05-11T16:46:39.945Z,69.10
2023-05-11T16:49:06.882Z,69.00
2023-05-11T16:51:33.822Z,68.90
2023-05-11T16:54:00.780Z,68.80
2023-05-11T16:56:27.807Z,68.90
2023-05-11T16:58:54.746Z,68.70
2023-05-11T17:01:21.682Z,68.70
2023-05-11T17:03:50.099Z,68.60
2023-05-11T17:06:17.980Z,68.50
2023-05-11T17:08:46.532Z,68.50
2023-05-11T17:11:13.420Z,68.50
2023-05-11T17:13:40.347Z,68.40
2023-05-11T17:16:07.456Z,68.40
2023-05-11T17:18:34.415Z,68.10
2023-05-11T17:21:02.740Z,67.40
2023-05-11T17:23:29.606Z,66.30
2023-05-11T17:25:56.465Z,66.80
2023-05-11T17:28:23.421Z,67.00
2023-05-11T17:30:50.578Z,67.00
2023-05-11T17:33:17.711Z,67.10
2023-05-11T17:35:44.727Z,67.20
2023-05-11T17:38:13.012Z,67.40
2023-05-11T17:40:39.982Z,67.40
2023-05-11T17:43:06.886Z,67.50
2023-05-11T17:45:33.810Z,67.60
2023-05-11T17:48:00.781Z,67.60
2023-05-11T17:50:27.764Z,67.50
2023-05-11T17:52:54.660Z,67.60
2023-05-11T17:55:22.913Z,67.50
2023-05-11T17:57:49.765Z,67.50
2023-05-11T18:00:17.295Z,67.60
2023-05-11T18:02:46.858Z,67.50
2023-05-11T18:05:13.750Z,67.50
2023-05-11T18:07:40.881Z,67.60
2023-05-11T18:10:08.573Z,67.60
2023-05-11T18:12:36.967Z,67.60
2023-05-11T18:15:04.291Z,67.60
2023-05-11T18:17:31.239Z,67.60
2023-05-11T18:19:58.155Z,67.60
2023-05-11T18:22:25.041Z,67.60
2023-05-11T18:24:51.964Z,67.60
2023-05-11T18:27:18.850Z,67.60
2023-05-11T18:29:47.107Z,67.70
2023-05-11T18:32:14.054Z,67.70
2023-05-11T18:34:40.965Z,67.80
2023-05-11T18:37:08.027Z,67.80
2023-05-11T18:39:35.029Z,67.90
2023-05-11T18:42:01.915Z,67.80
2023-05-11T18:44:28.800Z,67.80
2023-05-11T18:46:57.161Z,67.90
2023-05-11T18:49:24.112Z,67.90
2023-05-11T18:51:51.021Z,67.90
2023-05-11T18:54:17.923Z,67.90
2023-05-11T18:56:45.396Z,67.90
2023-05-11T18:59:12.249Z,67.90
2023-05-11T19:01:47.602Z,68.00
2023-05-11T19:04:16.540Z,68.00
2023-05-11T19:06:43.375Z,68.10
2023-05-11T19:09:10.232Z,68.10
2023-05-11T19:11:37.225Z,68.00
2023-05-11T19:14:04.215Z,68.00
2023-05-11T19:16:31.215Z,68.00
2023-05-11T19:18:58.213Z,68.10
2023-05-11T19:21:26.587Z,68.10
2023-05-11T19:23:53.468Z,68.10
2023-05-11T19:26:20.323Z,68.00
2023-05-11T19:28:47.189Z,68.10
2023-05-11T19:31:14.058Z,68.10
2023-05-11T19:33:40.925Z,68.10
2023-05-11T19:36:07.783Z,68.10
2023-05-11T19:38:36.043Z,68.10
2023-05-11T19:41:02.909Z,68.10
2023-05-11T19:43:29.767Z,68.10
2023-05-11T19:45:56.748Z,68.10
2023-05-11T19:48:23.604Z,68.10
2023-05-11T19:50:50.458Z,68.10
2023-05-11T19:53:17.338Z,68.10
2023-05-11T19:55:47.887Z,68.20
2023-05-11T19:58:15.161Z,68.10
2023-05-11T20:00:42.026Z,68.20
2023-05-11T20:03:09.086Z,68.20
2023-05-11T20:05:36.046Z,68.20
2023-05-11T20:08:02.963Z,68.20
2023-05-11T20:10:31.175Z,68.20
2023-05-11T20:12:59.455Z,68.20
2023-05-11T20:15:26.565Z,68.20
2023-05-11T20:17:53.454Z,68.20
2023-05-11T20:20:20.823Z,68.20
2023-05-11T20:22:47.960Z,68.20
2023-05-11T20:25:18.691Z,68.20
2023-05-11T20:27:46.025Z,68.20
2023-05-11T20:30:14.664Z,68.20
2023-05-11T20:34:06.847Z,68.20
2023-05-11T20:35:28.619Z,68.20
2023-05-11T20:37:55.471Z,68.30
2023-05-11T20:40:22.405Z,69.10
2023-05-11T20:42:49.271Z,68.20
2023-05-11T20:45:17.900Z,68.10
2023-05-11T20:47:44.825Z,68.20
2023-05-11T20:50:14.033Z,68.20
2023-05-11T20:52:40.883Z,68.10
2023-05-11T20:55:08.315Z,68.10
2023-05-11T20:57:35.277Z,68.10
2023-05-11T21:00:05.153Z,68.10
2023-05-11T21:02:33.767Z,68.20
2023-05-11T21:05:00.798Z,68.10
2023-05-11T21:07:27.706Z,68.20
2023-05-11T21:09:54.594Z,68.20
2023-05-11T21:12:21.454Z,68.20
2023-05-11T21:14:48.350Z,68.20
2023-05-11T21:17:15.315Z,68.20
2023-05-11T21:19:43.645Z,68.20
2023-05-11T21:22:10.609Z,68.20
2023-05-11T21:24:37.517Z,69.00
2023-05-11T21:27:04.664Z,68.20
2023-05-11T21:29:31.726Z,68.20
2023-05-11T21:31:58.616Z,68.20
2023-05-11T21:34:25.478Z,68.30
2023-05-11T21:36:53.705Z,68.20
2023-05-11T21:39:20.567Z,68.20
2023-05-11T21:41:47.468Z,68.20
2023-05-11T21:44:14.353Z,68.20
2023-05-11T21:46:41.242Z,68.20
2023-05-11T21:49:08.161Z,68.20
2023-05-11T21:51:35.020Z,68.20
2023-05-11T21:54:03.467Z,68.10
2023-05-11T21:56:30.348Z,68.10
2023-05-11T21:58:57.216Z,68.20
2023-05-11T22:01:24.170Z,68.20
2023-05-11T22:03:51.131Z,68.10
2023-05-11T22:06:18.044Z,68.20
2023-05-11T22:08:44.913Z,68.10
2023-05-11T22:11:13.177Z,68.20
2023-05-11T22:13:40.246Z,68.10
2023-05-11T22:16:07.648Z,68.20
2023-05-11T22:18:34.606Z,68.20
2023-05-11T22:21:01.507Z,68.20
2023-05-11T22:23:28.421Z,68.20
2023-05-11T22:25:55.338Z,68.10
2023-05-11T22:28:23.595Z,68.10
2023-05-11T22:30:50.459Z,68.10
2023-05-11T22:33:17.333Z,68.10
2023-05-11T22:35:44.285Z,68.10
2023-05-11T22:38:12.162Z,68.10
2023-05-11T22:40:39.000Z,68.00
2023-05-11T22:43:05.878Z,68.00
2023-05-11T22:45:34.147Z,68.00
2023-05-11T22:48:01.075Z,68.00
2023-05-11T22:50:28.005Z,68.00
2023-05-11T22:52:54.910Z,68.00
2023-05-11T22:55:21.828Z,68.00
2023-05-11T22:57:48.696Z,68.10
2023-05-11T23:00:15.879Z,68.00
2023-05-11T23:02:44.204Z,68.00
2023-05-11T23:05:11.138Z,68.00
2023-05-11T23:07:38.097Z,67.90
2023-05-11T23:10:05.725Z,67.90
2023-05-11T23:12:32.616Z,67.90
2023-05-11T23:14:59.498Z,68.00
2023-05-11T23:17:26.497Z,67.90
2023-05-11T23:19:54.858Z,67.90
2023-05-11T23:22:21.749Z,67.90
2023-05-11T23:24:48.638Z,67.90
2023-05-11T23:27:15.505Z,67.90
2023-05-11T23:29:42.472Z,67.90
2023-05-11T23:32:09.485Z,67.90
2023-05-11T23:34:36.448Z,67.90
2023-05-11T23:37:04.991Z,67.90
2023-05-11T23:39:31.873Z,67.80
2023-05-11T23:41:58.738Z,67.90
2023-05-11T23:44:25.617Z,67.80
2023-05-11T23:46:52.555Z,67.80
2023-05-11T23:49:19.444Z,67.70
2023-05-11T23:51:46.324Z,67.70
2023-05-11T23:54:14.681Z,67.80
2023-05-11T23:56:41.576Z,67.90
2023-05-11T23:59:08.453Z,67.70
